Time,TemperatureF,DewpointF,PressureIn,WindDirection,WindDirectionDegrees,WindSpeedMPH,WindSpeedGustMPH,Humidity,HourlyPrecipIn,Conditions,Clouds,dailyrainin,SoftwareType,DateUTC
2013-05-08 00:01:00,48.7,41.5,29.99,North,0,0.0,0.0,76,0.00,,,0.00,WUHU216WMR100,2013-05-08 05:01:00,
2013-05-08 00:06:00,48.6,41.4,29.99,North,0,0.0,0.0,76,0.00,,,0.00,WUHU216WMR100,2013-05-08 05:06:00,
2013-05-08 00:11:00,48.6,41.4,29.99,North,0,0.0,0.0,76,0.00,,,0.00,WUHU216WMR100,2013-05-08 05:11:00,
2013-05-08 00:16:00,48.6,41.8,29.99,North,0,0.0,0.0,77,0.00,,,0.00,WUHU216WMR100,2013-05-08 05:16:00,
2013-05-08 00:21:00,48.6,41.8,29.99,North,0,0.0,0.0,77,0.00,,,0.00,WUHU216WMR100,2013-05-08 05:21:00,
2013-05-08 00:26:00,48.4,41.6,29.99,North,0,0.0,0.0,77,0.00,,,0.00,WUHU216WMR100,2013-05-08 05:26:00,
2013-05-08 00:31:00,48.4,41.6,29.99,North,0,0.0,0.0,77,0.00,,,0.00,WUHU216WMR100,2013-05-08 05:31:00,
2013-05-08 00:36:00,48.4,41.9,29.99,North,0,0.0,0.0,78,0.00,,,0.00,WUHU216WMR100,2013-05-08 05:36:00,
2013-05-08 00:41:00,48.2,41.7,29.99,North,0,0.0,0.0,78,0.00,,,0.00,WUHU216WMR100,2013-05-08 05:41:00,
2013-05-08 00:46:00,48.2,42.0,29.99,North,0,0.0,0.0,79,0.00,,,0.00,WUHU216WMR100,2013-05-08 05:46:00,
2013-05-08 00:51:00,48.2,42.0,29.99,North,0,0.0,0.0,79,0.00,,,0.00,WUHU216WMR100,2013-05-08 05:51:00,
2013-05-08 00:56:00,48.2,42.0,29.99,North,0,0.0,0.0,79,0.00,,,0.00,WUHU216WMR100,2013-05-08 05:56:00,
2013-05-08 01:01:00,48.0,42.2,29.99,North,0,0.0,0.0,80,0.00,,,0.00,WUHU216WMR100,2013-05-08 06:01:00,
2013-05-08 01:06:00,48.0,42.2,29.99,North,0,0.0,0.0,80,0.00,,,0.00,WUHU216WMR100,2013-05-08 06:06:00,
2013-05-08 01:11:00,47.8,41.6,29.99,North,0,0.0,0.0,79,0.00,,,0.00,WUHU216WMR100,2013-05-08 06:11:00,
2013-05-08 01:16:00,47.8,42.0,29.99,North,0,0.0,0.0,80,0.00,,,0.00,WUHU216WMR100,2013-05-08 06:16:00,
2013-05-08 01:21:00,47.7,42.5,29.99,North,0,0.0,0.0,82,0.00,,,0.00,WUHU216WMR100,2013-05-08 06:21:00,
2013-05-08 01:26:00,47.7,42.5,29.99,North,0,0.0,0.0,82,0.00,,,0.00,WUHU216WMR100,2013-05-08 06:26:00,
2013-05-08 01:31:00,47.5,42.6,29.96,North,0,0.0,0.0,83,0.00,,,0.00,WUHU216WMR100,2013-05-08 06:31:00,
2013-05-08 01:36:00,47.5,42.6,29.96,North,0,0.0,0.0,83,0.00,,,0.00,WUHU216WMR100,2013-05-08 06:36:00,
2013-05-08 01:41:00,47.3,42.4,29.96,North,0,0.0,0.0,83,0.00,,,0.00,WUHU216WMR100,2013-05-08 06:41:00,
2013-05-08 01:46:00,47.5,42.9,29.96,North,0,0.0,0.0,84,0.00,,,0.00,WUHU216WMR100,2013-05-08 06:46:00,
2013-05-08 01:51:00,47.5,42.9,29.96,North,0,0.0,0.0,84,0.00,,,0.00,WUHU216WMR100,2013-05-08 06:51:00,
2013-05-08 01:56:00,47.5,42.9,29.96,North,0,0.0,0.0,84,0.00,,,0.00,WUHU216WMR100,2013-05-08 06:56:00,
2013-05-08 02:01:00,47.5,42.9,29.96,North,0,0.0,0.0,84,0.00,,,0.00,WUHU216WMR100,2013-05-08 07:01:00,
2013-05-08 02:06:00,47.3,43.0,29.96,North,0,0.0,0.0,85,0.00,,,0.00,WUHU216WMR100,2013-05-08 07:06:00,
2013-05-08 02:11:00,47.3,43.0,29.96,North,0,0.0,0.0,85,0.00,,,0.00,WUHU216WMR100,2013-05-08 07:11:00,
2013-05-08 02:16:00,47.3,43.0,29.96,North,0,0.0,0.0,85,0.00,,,0.00,WUHU216WMR100,2013-05-08 07:16:00,
2013-05-08 02:21:00,47.3,43.0,29.96,North,0,0.0,0.0,85,0.00,,,0.00,WUHU216WMR100,2013-05-08 07:21:00,
2013-05-08 02:26:00,47.3,43.0,29.96,North,0,0.0,0.0,85,0.00,,,0.00,WUHU216WMR100,2013-05-08 07:26:00,
2013-05-08 02:31:00,46.9,42.9,29.96,North,0,0.0,0.0,86,0.00,,,0.00,WUHU216WMR100,2013-05-08 07:31:00,
2013-05-08 02:36:00,46.8,42.8,29.96,North,0,0.0,0.0,86,0.00,,,0.00,WUHU216WMR100,2013-05-08 07:36:00,
2013-05-08 02:41:00,46.8,42.8,29.96,North,0,0.0,0.0,86,0.00,,,0.00,WUHU216WMR100,2013-05-08 07:41:00,
2013-05-08 02:46:00,46.6,42.6,29.96,North,0,0.0,0.0,86,0.00,,,0.00,WUHU216WMR100,2013-05-08 07:46:00,
2013-05-08 02:51:00,46.4,42.7,29.96,North,0,0.0,0.0,87,0.00,,,0.00,WUHU216WMR100,2013-05-08 07:51:00,
2013-05-08 02:56:00,46.4,42.7,29.96,North,0,0.0,0.0,87,0.00,,,0.00,WUHU216WMR100,2013-05-08 07:56:00,
2013-05-08 03:01:00,46.2,42.5,29.96,North,0,0.0,0.0,87,0.00,,,0.00,WUHU216WMR100,2013-05-08 08:01:00,
2013-05-08 03:06:00,46.2,42.8,29.96,North,0,0.0,0.0,88,0.00,,,0.00,WUHU216WMR100,2013-05-08 08:06:00,
2013-05-08 03:11:00,46.2,42.5,29.96,North,0,0.0,0.0,87,0.00,,,0.00,WUHU216WMR100,2013-05-08 08:11:00,
2013-05-08 03:16:00,46.0,42.3,29.96,North,0,0.0,0.0,87,0.00,,,0.00,WUHU216WMR100,2013-05-08 08:16:00,
2013-05-08 03:21:00,46.2,42.5,29.96,North,0,0.0,0.0,87,0.00,,,0.00,WUHU216WMR100,2013-05-08 08:21:00,
2013-05-08 03:26:00,46.2,42.8,29.96,North,0,0.0,0.0,88,0.00,,,0.00,WUHU216WMR100,2013-05-08 08:26:00,
2013-05-08 03:31:00,46.2,42.8,29.96,North,0,0.0,0.0,88,0.00,,,0.00,WUHU216WMR100,2013-05-08 08:31:00,
2013-05-08 03:36:00,46.0,42.6,29.96,North,0,0.0,0.0,88,0.00,,,0.00,WUHU216WMR100,2013-05-08 08:36:00,
2013-05-08 03:41:00,46.2,42.8,29.96,North,0,0.0,0.0,88,0.00,,,0.00,WUHU216WMR100,2013-05-08 08:41:00,
2013-05-08 03:46:00,46.2,42.8,29.96,North,0,0.0,0.0,88,0.00,,,0.00,WUHU216WMR100,2013-05-08 08:46:00,
2013-05-08 03:51:00,46.0,42.6,29.96,North,0,0.0,0.0,88,0.00,,,0.00,WUHU216WMR100,2013-05-08 08:51:00,
2013-05-08 03:56:00,45.9,42.5,29.96,North,0,0.0,0.0,88,0.00,,,0.00,WUHU216WMR100,2013-05-08 08:56:00,
2013-05-08 04:01:00,45.9,42.8,29.96,North,0,0.0,0.0,89,0.00,,,0.00,WUHU216WMR100,2013-05-08 09:01:00,
2013-05-08 04:06:00,45.7,42.3,29.96,North,0,0.0,0.0,88,0.00,,,0.00,WUHU216WMR100,2013-05-08 09:06:00,
2013-05-08 04:11:00,45.7,42.3,29.96,North,0,0.0,0.0,88,0.00,,,0.00,WUHU216WMR100,2013-05-08 09:11:00,
2013-05-08 04:16:00,45.7,42.9,29.96,North,0,0.0,0.0,90,0.00,,,0.00,WUHU216WMR100,2013-05-08 09:16:00,
2013-05-08 04:21:00,45.5,42.7,29.96,North,0,0.0,0.0,90,0.00,,,0.00,WUHU216WMR100,2013-05-08 09:21:00,
2013-05-08 04:26:00,45.3,42.5,29.96,North,0,0.0,0.0,90,0.00,,,0.00,WUHU216WMR100,2013-05-08 09:26:00,
2013-05-08 04:31:00,45.1,42.3,29.96,North,0,0.0,0.0,90,0.00,,,0.00,WUHU216WMR100,2013-05-08 09:31:00,
2013-05-08 04:36:00,45.1,42.3,29.96,North,0,0.0,0.0,90,0.00,,,0.00,WUHU216WMR100,2013-05-08 09:36:00,
2013-05-08 04:41:00,45.3,42.8,29.96,North,0,0.0,0.0,91,0.00,,,0.00,WUHU216WMR100,2013-05-08 09:41:00,
2013-05-08 04:46:00,45.1,42.6,29.99,North,0,0.0,0.0,91,0.00,,,0.00,WUHU216WMR100,2013-05-08 09:46:00,
2013-05-08 04:51:00,45.1,42.6,29.99,North,0,0.0,0.0,91,0.00,,,0.00,WUHU216WMR100,2013-05-08 09:51:00,
2013-05-08 04:56:00,45.3,43.1,29.99,North,0,0.0,0.0,92,0.00,,,0.00,WUHU216WMR100,2013-05-08 09:56:00,
2013-05-08 05:01:00,45.1,42.9,29.99,North,0,0.0,0.0,92,0.00,,,0.00,WUHU216WMR100,2013-05-08 10:01:00,
2013-05-08 05:06:00,45.3,43.1,29.99,North,0,0.0,0.0,92,0.00,,,0.00,WUHU216WMR100,2013-05-08 10:06:00,
2013-05-08 05:11:00,45.1,42.9,29.99,North,0,0.0,0.0,92,0.00,,,0.00,WUHU216WMR100,2013-05-08 10:11:00,
2013-05-08 05:16:00,45.0,42.8,29.99,North,0,0.0,0.0,92,0.00,,,0.00,WUHU216WMR100,2013-05-08 10:16:00,
2013-05-08 05:21:00,44.8,42.6,29.99,North,0,0.0,0.0,92,0.00,,,0.00,WUHU216WMR100,2013-05-08 10:21:00,
2013-05-08 05:26:00,44.6,42.4,29.99,North,0,0.0,0.0,92,0.00,,,0.00,WUHU216WMR100,2013-05-08 10:26:00,
2013-05-08 05:31:00,44.6,42.4,29.99,North,0,0.0,0.0,92,0.00,,,0.00,WUHU216WMR100,2013-05-08 10:31:00,
2013-05-08 05:36:00,44.6,42.4,29.99,North,0,0.0,0.0,92,0.00,,,0.00,WUHU216WMR100,2013-05-08 10:36:00,
2013-05-08 05:41:00,44.6,42.4,29.99,North,0,0.0,0.0,92,0.00,,,0.00,WUHU216WMR100,2013-05-08 10:41:00,
2013-05-08 05:46:00,44.8,42.9,29.99,North,0,0.0,0.0,93,0.00,,,0.00,WUHU216WMR100,2013-05-08 10:46:00,
2013-05-08 05:51:00,45.0,43.1,29.99,North,0,0.0,0.0,93,0.00,,,0.00,WUHU216WMR100,2013-05-08 10:51:00,
2013-05-08 05:56:00,45.3,43.4,29.99,North,0,0.0,0.0,93,0.00,,,0.00,WUHU216WMR100,2013-05-08 10:56:00,
2013-05-08 06:01:00,45.9,44.2,29.99,North,0,0.0,0.0,94,0.00,,,0.00,WUHU216WMR100,2013-05-08 11:01:00,
2013-05-08 06:06:00,46.4,44.7,29.99,North,0,0.0,0.0,94,0.00,,,0.00,WUHU216WMR100,2013-05-08 11:06:00,
2013-05-08 06:11:00,46.9,45.5,29.99,North,0,0.0,0.0,95,0.00,,,0.00,WUHU216WMR100,2013-05-08 11:11:00,
2013-05-08 06:16:00,48.0,46.9,29.99,North,0,0.0,0.0,96,0.00,,,0.00,WUHU216WMR100,2013-05-08 11:16:00,
2013-05-08 06:21:00,49.3,48.2,29.99,North,0,0.0,0.0,96,0.00,,,0.00,WUHU216WMR100,2013-05-08 11:21:00,
2013-05-08 06:26:00,50.4,49.6,29.99,North,0,0.0,0.0,97,0.00,,,0.00,WUHU216WMR100,2013-05-08 11:26:00,
2013-05-08 06:31:00,51.1,50.2,30.02,North,0,0.0,0.0,97,0.00,,,0.00,WUHU216WMR100,2013-05-08 11:31:00,
2013-05-08 06:36:00,51.3,50.4,30.02,North,0,0.0,0.0,97,0.00,,,0.00,WUHU216WMR100,2013-05-08 11:36:00,
2013-05-08 06:41:00,51.4,50.3,30.02,North,0,0.0,0.0,96,0.00,,,0.00,WUHU216WMR100,2013-05-08 11:41:00,
2013-05-08 06:46:00,51.8,50.1,30.02,NE,45,2.1,2.1,94,0.00,,,0.00,WUHU216WMR100,2013-05-08 11:46:00,
2013-05-08 06:51:00,52.2,50.2,30.02,NE,45,0.0,2.1,93,0.00,,,0.00,WUHU216WMR100,2013-05-08 11:51:00,
2013-05-08 06:56:00,53.4,51.4,30.02,East,90,0.0,3.3,93,0.00,,,0.00,WUHU216WMR100,2013-05-08 11:56:00,
2013-05-08 07:01:00,55.2,52.9,30.02,East,90,0.0,3.3,92,0.00,,,0.00,WUHU216WMR100,2013-05-08 12:01:00,
2013-05-08 07:06:00,56.8,54.2,30.02,NNW,337,3.6,3.6,91,0.00,,,0.00,WUHU216WMR100,2013-05-08 12:06:00,
2013-05-08 07:11:00,57.7,53.5,30.02,NNW,337,0.0,3.6,86,0.00,,,0.00,WUHU216WMR100,2013-05-08 12:11:00,
2013-05-08 07:16:00,59.2,53.4,30.02,NE,45,3.6,3.6,81,0.00,,,0.00,WUHU216WMR100,2013-05-08 12:16:00,
2013-05-08 07:21:00,59.7,51.9,30.02,North,0,1.8,4.5,75,0.00,,,0.00,WUHU216WMR100,2013-05-08 12:21:00,
2013-05-08 07:26:00,60.8,52.2,30.02,NW,315,0.0,4.5,73,0.00,,,0.00,WUHU216WMR100,2013-05-08 12:26:00,
2013-05-08 07:31:00,61.5,51.4,30.02,NW,315,0.0,1.8,69,0.00,,,0.00,WUHU216WMR100,2013-05-08 12:31:00,
2013-05-08 07:36:00,62.6,50.8,30.02,North,0,1.9,2.1,65,0.00,,,0.00,WUHU216WMR100,2013-05-08 12:36:00,
2013-05-08 07:41:00,62.6,50.0,30.02,NNW,337,4.3,4.5,63,0.00,,,0.00,WUHU216WMR100,2013-05-08 12:41:00,
2013-05-08 07:46:00,62.6,47.7,30.02,NNW,337,3.7,4.5,58,0.00,,,0.00,WUHU216WMR100,2013-05-08 12:46:00,
2013-05-08 07:51:00,63.7,49.7,30.02,NE,45,2.1,4.1,60,0.00,,,0.00,WUHU216WMR100,2013-05-08 12:51:00,
2013-05-08 07:56:00,65.1,50.1,30.02,NE,45,2.6,2.6,58,0.00,,,0.00,WUHU216WMR100,2013-05-08 12:56:00,
2013-05-08 08:01:00,66.0,49.5,30.02,NNW,337,2.6,2.6,55,0.00,,,0.00,WUHU216WMR100,2013-05-08 13:01:00,
2013-05-08 08:06:00,67.3,50.7,30.02,ENE,67,0.0,2.6,55,0.00,,,0.00,WUHU216WMR100,2013-05-08 13:06:00,
2013-05-08 08:11:00,67.8,50.1,30.02,NNW,337,0.0,3.6,53,0.00,,,0.00,WUHU216WMR100,2013-05-08 13:11:00,
2013-05-08 08:16:00,68.4,49.1,30.02,NW,315,0.0,3.6,50,0.00,,,0.00,WUHU216WMR100,2013-05-08 13:16:00,
2013-05-08 08:21:00,69.3,49.9,30.02,WSW,247,4.5,4.5,50,0.00,,,0.00,WUHU216WMR100,2013-05-08 13:21:00,
2013-05-08 08:26:00,69.4,47.7,30.02,WNW,283,3.0,5.1,46,0.00,,,0.00,WUHU216WMR100,2013-05-08 13:26:00,
2013-05-08 08:31:00,70.2,49.0,30.02,SSW,202,0.0,5.1,47,0.00,,,0.00,WUHU216WMR100,2013-05-08 13:31:00,
2013-05-08 08:36:00,71.1,49.3,30.02,NNW,330,2.7,4.5,46,0.00,,,0.00,WUHU216WMR100,2013-05-08 13:36:00,
2013-05-08 08:41:00,71.4,48.9,30.02,NNW,337,2.6,4.5,45,0.00,,,0.00,WUHU216WMR100,2013-05-08 13:41:00,
2013-05-08 08:46:00,72.0,48.9,30.02,NNW,337,5.1,5.1,44,0.00,,,0.00,WUHU216WMR100,2013-05-08 13:46:00,
2013-05-08 08:51:00,72.5,49.3,30.02,NNW,337,2.1,5.1,44,0.00,,,0.00,WUHU216WMR100,2013-05-08 13:51:00,
2013-05-08 08:56:00,73.2,49.3,30.02,WNW,292,0.0,5.1,43,0.00,,,0.00,WUHU216WMR100,2013-05-08 13:56:00,
2013-05-08 09:01:00,73.8,49.9,30.02,NW,315,2.6,3.6,43,0.00,,,0.00,WUHU216WMR100,2013-05-08 14:01:00,
2013-05-08 09:06:00,74.5,49.8,30.02,NNW,337,3.3,3.3,42,0.00,,,0.00,WUHU216WMR100,2013-05-08 14:06:00,
2013-05-08 09:11:00,75.0,50.3,30.02,NW,308,3.9,4.5,42,0.00,,,0.00,WUHU216WMR100,2013-05-08 14:11:00,
2013-05-08 09:16:00,75.7,50.9,30.02,WNW,292,0.0,4.5,42,0.00,,,0.00,WUHU216WMR100,2013-05-08 14:16:00,
2013-05-08 09:21:00,76.5,48.9,30.02,NNW,337,4.3,4.5,38,0.00,,,0.00,WUHU216WMR100,2013-05-08 14:21:00,
2013-05-08 09:26:00,76.8,49.9,30.02,NNE,22,3.3,4.5,39,0.00,,,0.00,WUHU216WMR100,2013-05-08 14:26:00,
2013-05-08 09:31:00,77.2,48.8,30.02,North,0,3.7,4.5,37,0.00,,,0.00,WUHU216WMR100,2013-05-08 14:31:00,
2013-05-08 09:36:00,77.2,48.0,30.02,WSW,247,2.1,4.5,36,0.00,,,0.00,WUHU216WMR100,2013-05-08 14:36:00,
2013-05-08 09:41:00,77.7,50.0,30.02,WNW,292,3.6,7.8,38,0.00,,,0.00,WUHU216WMR100,2013-05-08 14:41:00,
2013-05-08 09:46:00,77.9,48.7,30.02,WNW,292,5.0,7.8,36,0.00,,,0.00,WUHU216WMR100,2013-05-08 14:46:00,
2013-05-08 09:51:00,78.3,49.0,30.02,WNW,292,4.1,10.7,36,0.00,,,0.00,WUHU216WMR100,2013-05-08 14:51:00,
2013-05-08 09:56:00,78.4,48.3,30.02,West,265,2.5,10.7,35,0.00,,,0.00,WUHU216WMR100,2013-05-08 14:56:00,
2013-05-08 10:01:00,78.6,48.5,30.02,NNW,340,2.7,6.3,35,0.00,,,0.00,WUHU216WMR100,2013-05-08 15:01:00,
2013-05-08 10:06:00,78.6,46.9,30.02,NNW,337,5.6,5.6,33,0.00,,,0.00,WUHU216WMR100,2013-05-08 15:06:00,
2013-05-08 10:11:00,78.6,47.7,30.02,SW,227,5.5,7.1,34,0.00,,,0.00,WUHU216WMR100,2013-05-08 15:11:00,
2013-05-08 10:16:00,79.0,48.1,30.02,NNW,337,2.7,7.1,34,0.00,,,0.00,WUHU216WMR100,2013-05-08 15:16:00,
2013-05-08 10:21:00,79.2,48.3,30.02,WSW,247,3.6,5.1,34,0.00,,,0.00,WUHU216WMR100,2013-05-08 15:21:00,
2013-05-08 10:26:00,80.1,48.2,30.02,NW,315,3.3,5.1,33,0.00,,,0.00,WUHU216WMR100,2013-05-08 15:26:00,
2013-05-08 10:31:00,80.8,48.9,30.02,WNW,288,2.6,4.1,33,0.00,,,0.00,WUHU216WMR100,2013-05-08 15:31:00,
2013-05-08 10:36:00,80.4,47.7,30.02,NNW,337,4.5,6.6,32,0.00,,,0.00,WUHU216WMR100,2013-05-08 15:36:00,
2013-05-08 10:41:00,79.9,47.3,30.02,North,0,7.1,7.1,32,0.00,,,0.00,WUHU216WMR100,2013-05-08 15:41:00,
2013-05-08 10:47:00,79.9,46.4,30.02,NW,323,6.0,7.8,31,0.00,,,0.00,WUHU216WMR100,2013-05-08 15:47:00,
2013-05-08 10:52:00,80.2,47.5,30.02,North,2,4.2,7.8,32,0.00,,,0.00,WUHU216WMR100,2013-05-08 15:52:00,
2013-05-08 10:57:00,80.4,47.7,30.02,NNE,22,6.3,6.3,32,0.00,,,0.00,WUHU216WMR100,2013-05-08 15:57:00,
2013-05-08 11:02:00,80.6,47.0,30.02,NNW,337,5.6,7.1,31,0.00,,,0.00,WUHU216WMR100,2013-05-08 16:02:00,
2013-05-08 11:07:00,80.8,47.2,30.02,North,0,2.6,10.7,31,0.00,,,0.00,WUHU216WMR100,2013-05-08 16:07:00,
2013-05-08 11:12:00,80.4,45.1,30.02,North,353,4.9,10.7,29,0.00,,,0.00,WUHU216WMR100,2013-05-08 16:12:00,
2013-05-08 11:17:00,80.1,43.9,30.02,North,352,7.6,9.2,28,0.00,,,0.00,WUHU216WMR100,2013-05-08 16:17:00,
2013-05-08 11:22:00,80.8,45.4,30.02,North,0,4.5,9.2,29,0.00,,,0.00,WUHU216WMR100,2013-05-08 16:22:00,
2013-05-08 11:27:00,81.5,46.9,30.02,North,0,4.8,6.3,30,0.00,,,0.00,WUHU216WMR100,2013-05-08 16:27:00,
2013-05-08 11:32:00,82.2,48.4,30.02,NW,315,2.6,6.3,31,0.00,,,0.00,WUHU216WMR100,2013-05-08 16:32:00,
2013-05-08 11:37:00,82.4,45.9,30.02,NW,315,4.8,6.3,28,0.00,,,0.00,WUHU216WMR100,2013-05-08 16:37:00,
2013-05-08 11:42:00,81.3,44.0,30.02,North,358,7.6,12.2,27,0.00,,,0.00,WUHU216WMR100,2013-05-08 16:42:00,
2013-05-08 11:47:00,81.3,44.9,30.02,West,266,3.6,12.2,28,0.00,,,0.00,WUHU216WMR100,2013-05-08 16:47:00,
2013-05-08 11:52:00,82.0,45.5,30.02,North,0,5.1,10.4,28,0.00,,,0.00,WUHU216WMR100,2013-05-08 16:52:00,
2013-05-08 11:57:00,81.9,45.5,30.02,NNE,26,6.7,10.4,28,0.00,,,0.00,WUHU216WMR100,2013-05-08 16:57:00,
2013-05-08 12:02:00,81.7,44.3,30.02,NNE,12,5.8,8.1,27,0.00,,,0.00,WUHU216WMR100,2013-05-08 17:02:00,
2013-05-08 12:07:00,81.7,43.4,30.02,NNW,336,5.4,8.1,26,0.00,,,0.00,WUHU216WMR100,2013-05-08 17:07:00,
2013-05-08 12:12:00,80.8,40.6,30.02,North,5,8.0,11.1,24,0.00,,,0.00,WUHU216WMR100,2013-05-08 17:12:00,
2013-05-08 12:17:00,81.1,43.8,30.02,NNW,337,5.9,11.1,27,0.00,,,0.00,WUHU216WMR100,2013-05-08 17:17:00,
2013-05-08 12:22:00,80.8,43.6,30.02,NW,315,5.1,9.6,27,0.00,,,0.00,WUHU216WMR100,2013-05-08 17:22:00,
2013-05-08 12:27:00,81.0,43.7,29.99,NNE,15,6.8,9.6,27,0.00,,,0.00,WUHU216WMR100,2013-05-08 17:27:00,
2013-05-08 12:32:00,80.6,42.4,29.99,NW,321,7.2,8.9,26,0.00,,,0.00,WUHU216WMR100,2013-05-08 17:32:00,
2013-05-08 12:37:00,80.8,43.6,29.99,North,354,7.3,8.9,27,0.00,,,0.00,WUHU216WMR100,2013-05-08 17:37:00,
2013-05-08 12:42:00,80.8,43.6,29.99,NW,315,5.1,9.6,27,0.00,,,0.00,WUHU216WMR100,2013-05-08 17:42:00,
2013-05-08 12:47:00,79.9,40.8,29.99,NNW,333,10.5,13.4,25,0.00,,,0.00,WUHU216WMR100,2013-05-08 17:47:00,
2013-05-08 12:52:00,79.9,42.8,29.99,NW,317,7.3,13.4,27,0.00,,,0.00,WUHU216WMR100,2013-05-08 17:52:00,
2013-05-08 12:57:00,80.6,42.4,29.99,NNW,337,9.9,9.9,26,0.00,,,0.00,WUHU216WMR100,2013-05-08 17:57:00,
2013-05-08 13:02:00,80.6,44.3,29.99,NNW,337,5.9,9.9,28,0.00,,,0.00,WUHU216WMR100,2013-05-08 18:02:00,
2013-05-08 13:07:00,80.2,42.1,29.99,NNE,22,7.4,9.9,26,0.00,,,0.00,WUHU216WMR100,2013-05-08 18:07:00,
2013-05-08 13:12:00,81.0,42.8,29.99,NE,52,5.8,8.9,26,0.00,,,0.00,WUHU216WMR100,2013-05-08 18:12:00,
2013-05-08 13:17:00,81.0,41.8,29.99,NNE,16,8.2,10.4,25,0.00,,,0.00,WUHU216WMR100,2013-05-08 18:17:00,
2013-05-08 13:22:00,81.3,42.0,29.99,NNE,13,6.4,10.4,25,0.00,,,0.00,WUHU216WMR100,2013-05-08 18:22:00,
2013-05-08 13:27:00,81.3,42.0,29.99,North,9,7.9,11.1,25,0.00,,,0.00,WUHU216WMR100,2013-05-08 18:27:00,
2013-05-08 13:32:00,81.5,41.1,29.99,NNW,337,9.2,11.1,24,0.00,,,0.00,WUHU216WMR100,2013-05-08 18:32:00,
2013-05-08 13:37:00,81.9,41.5,29.99,North,10,5.0,9.2,24,0.00,,,0.00,WUHU216WMR100,2013-05-08 18:37:00,
2013-05-08 13:42:00,81.9,41.5,29.99,NE,45,5.9,9.2,24,0.00,,,0.00,WUHU216WMR100,2013-05-08 18:42:00,
2013-05-08 13:47:00,81.9,41.5,29.99,NNE,22,9.0,14.4,24,0.00,,,0.00,WUHU216WMR100,2013-05-08 18:47:00,
2013-05-08 13:52:00,81.7,41.3,29.99,NNW,337,6.6,14.4,24,0.00,,,0.00,WUHU216WMR100,2013-05-08 18:52:00,
2013-05-08 13:57:00,81.5,41.1,29.99,SSE,157,6.6,10.7,24,0.00,,,0.00,WUHU216WMR100,2013-05-08 18:57:00,
2013-05-08 14:02:00,81.9,41.5,29.99,NNW,338,6.7,9.9,24,0.00,,,0.00,WUHU216WMR100,2013-05-08 19:02:00,
2013-05-08 14:07:00,81.7,40.2,29.99,NW,323,7.0,8.9,23,0.00,,,0.00,WUHU216WMR100,2013-05-08 19:07:00,
2013-05-08 14:12:00,81.9,41.5,29.99,NE,42,8.3,9.9,24,0.00,,,0.00,WUHU216WMR100,2013-05-08 19:12:00,
2013-05-08 14:17:00,81.7,41.3,29.99,North,354,6.4,9.9,24,0.00,,,0.00,WUHU216WMR100,2013-05-08 19:17:00,
2013-05-08 14:22:00,81.5,41.1,29.99,NNW,337,7.1,8.1,24,0.00,,,0.00,WUHU216WMR100,2013-05-08 19:22:00,
2013-05-08 14:27:00,82.0,40.5,29.99,NE,41,7.6,14.0,23,0.00,,,0.00,WUHU216WMR100,2013-05-08 19:27:00,
2013-05-08 14:32:00,81.7,40.2,29.99,NNW,337,9.6,14.0,23,0.00,,,0.00,WUHU216WMR100,2013-05-08 19:32:00,
2013-05-08 14:37:00,80.8,39.5,29.99,NW,324,6.9,9.9,23,0.00,,,0.00,WUHU216WMR100,2013-05-08 19:37:00,
2013-05-08 14:42:00,81.3,39.9,29.99,North,9,9.0,10.4,23,0.00,,,0.00,WUHU216WMR100,2013-05-08 19:42:00,
2013-05-08 14:47:00,81.0,39.6,29.99,NE,45,6.3,10.4,23,0.00,,,0.00,WUHU216WMR100,2013-05-08 19:47:00,
2013-05-08 14:52:00,80.8,39.5,29.99,NW,315,9.9,12.9,23,0.00,,,0.00,WUHU216WMR100,2013-05-08 19:52:00,
2013-05-08 14:57:00,81.1,39.7,29.96,ENE,67,8.1,12.9,23,0.00,,,0.00,WUHU216WMR100,2013-05-08 19:57:00,
2013-05-08 15:02:00,81.3,39.9,29.96,ESE,112,10.4,13.4,23,0.00,,,0.00,WUHU216WMR100,2013-05-08 20:02:00,
2013-05-08 15:07:00,81.5,40.1,29.96,North,5,6.4,13.4,23,0.00,,,0.00,WUHU216WMR100,2013-05-08 20:07:00,
2013-05-08 15:12:00,81.5,38.9,29.96,NNE,22,5.1,11.4,22,0.00,,,0.00,WUHU216WMR100,2013-05-08 20:12:00,
2013-05-08 15:17:00,81.3,38.8,29.96,North,6,9.9,12.9,22,0.00,,,0.00,WUHU216WMR100,2013-05-08 20:17:00,
2013-05-08 15:22:00,81.0,37.3,29.96,NNW,334,6.4,12.9,21,0.00,,,0.00,WUHU216WMR100,2013-05-08 20:22:00,
2013-05-08 15:27:00,81.0,37.3,29.96,ENE,75,9.6,12.5,21,0.00,,,0.00,WUHU216WMR100,2013-05-08 20:27:00,
2013-05-08 15:32:00,81.7,37.9,29.96,ESE,112,6.6,12.5,21,0.00,,,0.00,WUHU216WMR100,2013-05-08 20:32:00,
2013-05-08 15:37:00,81.7,37.9,29.96,NNE,22,9.2,11.4,21,0.00,,,0.00,WUHU216WMR100,2013-05-08 20:37:00,
2013-05-08 15:42:00,81.3,37.6,29.96,NNE,22,9.9,11.4,21,0.00,,,0.00,WUHU216WMR100,2013-05-08 20:42:00,
2013-05-08 15:47:00,80.8,37.2,29.96,NE,45,6.6,10.7,21,0.00,,,0.00,WUHU216WMR100,2013-05-08 20:47:00,
2013-05-08 15:52:00,81.0,37.3,29.96,NNE,21,9.6,11.9,21,0.00,,,0.00,WUHU216WMR100,2013-05-08 20:52:00,
2013-05-08 15:57:00,81.0,37.3,29.96,North,0,5.9,12.9,21,0.00,,,0.00,WUHU216WMR100,2013-05-08 20:57:00,
2013-05-08 16:02:00,80.8,37.2,29.96,North,0,13.4,13.4,21,0.00,,,0.00,WUHU216WMR100,2013-05-08 21:02:00,
2013-05-08 16:07:00,81.1,38.6,29.96,North,9,7.3,13.4,22,0.00,,,0.00,WUHU216WMR100,2013-05-08 21:07:00,
2013-05-08 16:12:00,80.8,38.4,29.96,NNW,335,6.0,10.4,22,0.00,,,0.00,WUHU216WMR100,2013-05-08 21:12:00,
2013-05-08 16:17:00,81.0,38.5,29.96,North,352,5.7,10.4,22,0.00,,,0.00,WUHU216WMR100,2013-05-08 21:17:00,
2013-05-08 16:22:00,80.8,38.4,29.96,NNW,337,6.6,7.1,22,0.00,,,0.00,WUHU216WMR100,2013-05-08 21:22:00,
2013-05-08 16:27:00,81.0,37.3,29.96,NNW,339,5.3,7.1,21,0.00,,,0.00,WUHU216WMR100,2013-05-08 21:27:00,
2013-05-08 16:32:00,81.3,38.8,29.96,East,90,6.3,9.6,22,0.00,,,0.00,WUHU216WMR100,2013-05-08 21:32:00,
2013-05-08 16:37:00,81.9,39.3,29.96,NW,326,5.1,9.6,22,0.00,,,0.00,WUHU216WMR100,2013-05-08 21:37:00,
2013-05-08 16:42:00,81.1,37.4,29.93,SE,135,5.1,6.6,21,0.00,,,0.00,WUHU216WMR100,2013-05-08 21:42:00,
2013-05-08 16:47:00,81.3,38.8,29.93,North,352,2.3,6.6,22,0.00,,,0.00,WUHU216WMR100,2013-05-08 21:47:00,
2013-05-08 16:52:00,81.5,38.9,29.93,NNW,337,5.6,6.3,22,0.00,,,0.00,WUHU216WMR100,2013-05-08 21:52:00,
2013-05-08 16:57:00,81.1,38.6,29.93,NNW,337,3.6,6.3,22,0.00,,,0.00,WUHU216WMR100,2013-05-08 21:57:00,
2013-05-08 17:02:00,80.8,37.2,29.93,ENE,67,5.6,9.9,21,0.00,,,0.00,WUHU216WMR100,2013-05-08 22:02:00,
2013-05-08 17:07:00,80.6,37.0,29.93,NE,48,5.5,9.9,21,0.00,,,0.00,WUHU216WMR100,2013-05-08 22:07:00,
2013-05-08 17:12:00,80.6,38.2,29.93,NNW,337,5.6,8.1,22,0.00,,,0.00,WUHU216WMR100,2013-05-08 22:12:00,
2013-05-08 17:17:00,80.1,37.8,29.93,NNE,23,4.2,6.3,22,0.00,,,0.00,WUHU216WMR100,2013-05-08 22:17:00,
2013-05-08 17:22:00,80.1,37.8,29.93,East,90,5.6,6.3,22,0.00,,,0.00,WUHU216WMR100,2013-05-08 22:22:00,
2013-05-08 17:27:00,80.2,37.8,29.96,NNW,337,4.5,5.6,22,0.00,,,0.00,WUHU216WMR100,2013-05-08 22:27:00,
2013-05-08 17:32:00,79.7,37.4,29.96,North,9,4.1,6.6,22,0.00,,,0.00,WUHU216WMR100,2013-05-08 22:32:00,
2013-05-08 17:37:00,79.2,37.0,29.96,NNE,17,5.2,7.8,22,0.00,,,0.00,WUHU216WMR100,2013-05-08 22:37:00,
2013-05-08 17:42:00,78.8,36.7,29.93,NE,45,5.6,7.8,22,0.00,,,0.00,WUHU216WMR100,2013-05-08 22:42:00,
2013-05-08 17:47:00,78.3,37.4,29.93,ENE,67,7.1,7.1,23,0.00,,,0.00,WUHU216WMR100,2013-05-08 22:47:00,
2013-05-08 17:52:00,78.1,38.3,29.93,NW,315,5.1,7.1,24,0.00,,,0.00,WUHU216WMR100,2013-05-08 22:52:00,
2013-05-08 17:57:00,77.5,36.7,29.93,NNW,337,9.2,9.2,23,0.00,,,0.00,WUHU216WMR100,2013-05-08 22:57:00,
2013-05-08 18:02:00,77.2,37.5,29.93,ENE,73,2.9,9.2,24,0.00,,,0.00,WUHU216WMR100,2013-05-08 23:02:00,
2013-05-08 18:07:00,76.8,37.2,29.93,NNW,337,4.1,9.2,24,0.00,,,0.00,WUHU216WMR100,2013-05-08 23:07:00,
2013-05-08 18:12:00,75.9,37.4,29.93,North,3,5.2,8.1,25,0.00,,,0.00,WUHU216WMR100,2013-05-08 23:12:00,
2013-05-08 18:17:00,75.2,36.8,29.93,NNW,334,5.6,8.1,25,0.00,,,0.00,WUHU216WMR100,2013-05-08 23:17:00,
2013-05-08 18:22:00,74.8,37.5,29.93,North,355,4.0,8.1,26,0.00,,,0.00,WUHU216WMR100,2013-05-08 23:22:00,
2013-05-08 18:27:00,74.5,38.2,29.96,North,351,2.6,4.5,27,0.00,,,0.00,WUHU216WMR100,2013-05-08 23:27:00,
2013-05-08 18:32:00,74.1,37.8,29.96,NE,34,4.3,5.1,27,0.00,,,0.00,WUHU216WMR100,2013-05-08 23:32:00,
2013-05-08 18:37:00,73.6,37.4,29.96,NNE,19,3.7,5.1,27,0.00,,,0.00,WUHU216WMR100,2013-05-08 23:37:00,
2013-05-08 18:42:00,73.0,37.8,29.93,NNE,22,4.8,6.3,28,0.00,,,0.00,WUHU216WMR100,2013-05-08 23:42:00,
2013-05-08 18:47:00,72.5,39.1,29.93,NNE,22,1.8,6.3,30,0.00,,,0.00,WUHU216WMR100,2013-05-08 23:47:00,
2013-05-08 18:53:00,72.1,38.8,29.93,NE,45,3.6,5.1,30,0.00,,,0.00,WUHU216WMR100,2013-05-08 23:53:00,
2013-05-08 18:58:00,71.4,39.8,29.93,NE,45,1.8,5.1,32,0.00,,,0.00,WUHU216WMR100,2013-05-08 23:58:00,
2013-05-08 19:03:00,70.9,40.2,29.93,NNE,20,1.7,3.6,33,0.00,,,0.00,WUHU216WMR100,2013-05-09 00:03:00,
2013-05-08 19:08:00,70.5,39.8,29.93,NNW,337,2.6,2.6,33,0.00,,,0.00,WUHU216WMR100,2013-05-09 00:08:00,
2013-05-08 19:13:00,70.0,39.4,29.93,NNE,22,0.0,3.3,33,0.00,,,0.00,WUHU216WMR100,2013-05-09 00:13:00,
2013-05-08 19:18:00,69.4,39.6,29.93,NNE,22,0.0,3.3,34,0.00,,,0.00,WUHU216WMR100,2013-05-09 00:18:00,
2013-05-08 19:23:00,68.7,39.0,29.93,NNE,22,0.0,0.0,34,0.00,,,0.00,WUHU216WMR100,2013-05-09 00:23:00,
2013-05-08 19:28:00,68.0,39.1,29.93,NNE,22,0.0,0.0,35,0.00,,,0.00,WUHU216WMR100,2013-05-09 00:28:00,
2013-05-08 19:33:00,67.1,39.8,29.93,NNE,22,0.0,0.0,37,0.00,,,0.00,WUHU216WMR100,2013-05-09 00:33:00,
2013-05-08 19:38:00,66.6,39.3,29.93,NNE,22,0.0,0.0,37,0.00,,,0.00,WUHU216WMR100,2013-05-09 00:38:00,
2013-05-08 19:43:00,65.8,39.3,29.96,NNE,22,0.0,0.0,38,0.00,,,0.00,WUHU216WMR100,2013-05-09 00:43:00,
2013-05-08 19:48:00,65.1,40.0,29.96,NNE,22,0.0,0.0,40,0.00,,,0.00,WUHU216WMR100,2013-05-09 00:48:00,
2013-05-08 19:53:00,64.2,41.1,29.96,NNE,22,0.0,0.0,43,0.00,,,0.00,WUHU216WMR100,2013-05-09 00:53:00,
2013-05-08 19:58:00,63.5,40.5,29.96,NNE,22,0.0,0.0,43,0.00,,,0.00,WUHU216WMR100,2013-05-09 00:58:00,
2013-05-08 20:03:00,62.8,39.9,29.96,NNE,22,0.0,0.0,43,0.00,,,0.00,WUHU216WMR100,2013-05-09 01:03:00,
2013-05-08 20:08:00,61.9,40.3,29.96,NNE,22,0.0,0.0,45,0.00,,,0.00,WUHU216WMR100,2013-05-09 01:08:00,
2013-05-08 20:13:00,61.2,40.2,29.96,NNE,22,0.0,0.0,46,0.00,,,0.00,WUHU216WMR100,2013-05-09 01:13:00,
2013-05-08 20:18:00,60.6,40.2,29.96,NNE,22,0.0,0.0,47,0.00,,,0.00,WUHU216WMR100,2013-05-09 01:18:00,
2013-05-08 20:23:00,60.3,39.9,29.96,North,0,0.0,0.0,47,0.00,,,0.00,WUHU216WMR100,2013-05-09 01:23:00,
2013-05-08 20:28:00,59.9,39.6,29.96,North,0,0.0,0.0,47,0.00,,,0.00,WUHU216WMR100,2013-05-09 01:28:00,
2013-05-08 20:33:00,59.5,39.8,29.96,North,0,0.0,0.0,48,0.00,,,0.00,WUHU216WMR100,2013-05-09 01:33:00,
2013-05-08 20:38:00,59.2,40.6,29.96,North,0,0.0,0.0,50,0.00,,,0.00,WUHU216WMR100,2013-05-09 01:38:00,
2013-05-08 20:43:00,58.8,40.2,29.96,North,0,0.0,0.0,50,0.00,,,0.00,WUHU216WMR100,2013-05-09 01:43:00,
2013-05-08 20:48:00,58.5,40.4,29.96,North,0,0.0,0.0,51,0.00,,,0.00,WUHU216WMR100,2013-05-09 01:48:00,
2013-05-08 20:53:00,58.1,40.1,29.96,North,0,0.0,0.0,51,0.00,,,0.00,WUHU216WMR100,2013-05-09 01:53:00,
2013-05-08 20:58:00,57.9,40.4,29.96,North,0,0.0,0.0,52,0.00,,,0.00,WUHU216WMR100,2013-05-09 01:58:00,
2013-05-08 21:03:00,57.6,40.6,29.96,North,0,0.0,0.0,53,0.00,,,0.00,WUHU216WMR100,2013-05-09 02:03:00,
2013-05-08 21:08:00,57.4,40.4,29.96,North,0,0.0,0.0,53,0.00,,,0.00,WUHU216WMR100,2013-05-09 02:08:00,
2013-05-08 21:13:00,57.2,40.8,29.96,North,0,0.0,0.0,54,0.00,,,0.00,WUHU216WMR100,2013-05-09 02:13:00,
2013-05-08 21:18:00,56.8,41.3,29.96,North,0,0.0,0.0,56,0.00,,,0.00,WUHU216WMR100,2013-05-09 02:18:00,
2013-05-08 21:23:00,56.7,41.3,29.96,North,0,0.0,0.0,56,0.00,,,0.00,WUHU216WMR100,2013-05-09 02:23:00,
2013-05-08 21:28:00,56.3,40.9,29.96,North,0,0.0,0.0,56,0.00,,,0.00,WUHU216WMR100,2013-05-09 02:28:00,
2013-05-08 21:33:00,56.7,41.7,29.96,North,0,0.0,0.0,57,0.00,,,0.00,WUHU216WMR100,2013-05-09 02:33:00,
2013-05-08 21:38:00,56.3,41.8,29.96,North,0,0.0,0.0,58,0.00,,,0.00,WUHU216WMR100,2013-05-09 02:38:00,
2013-05-08 21:43:00,55.9,41.9,29.96,North,0,0.0,0.0,59,0.00,,,0.00,WUHU216WMR100,2013-05-09 02:43:00,
2013-05-08 21:48:00,55.8,41.3,29.96,North,0,0.0,0.0,58,0.00,,,0.00,WUHU216WMR100,2013-05-09 02:48:00,
2013-05-08 21:53:00,55.8,42.7,29.96,North,0,0.0,0.0,61,0.00,,,0.00,WUHU216WMR100,2013-05-09 02:53:00,
2013-05-08 21:58:00,55.8,43.1,29.96,North,0,0.0,0.0,62,0.00,,,0.00,WUHU216WMR100,2013-05-09 02:58:00,
2013-05-08 22:03:00,55.6,42.9,29.96,North,0,0.0,0.0,62,0.00,,,0.00,WUHU216WMR100,2013-05-09 03:03:00,
2013-05-08 22:08:00,55.2,42.5,29.96,North,0,0.0,0.0,62,0.00,,,0.00,WUHU216WMR100,2013-05-09 03:08:00,
2013-05-08 22:13:00,54.9,42.7,29.96,North,0,0.0,0.0,63,0.00,,,0.00,WUHU216WMR100,2013-05-09 03:13:00,
2013-05-08 22:18:00,54.7,42.9,29.96,North,0,0.0,0.0,64,0.00,,,0.00,WUHU216WMR100,2013-05-09 03:18:00,
2013-05-08 22:23:00,54.5,43.1,29.96,North,0,0.0,0.0,65,0.00,,,0.00,WUHU216WMR100,2013-05-09 03:23:00,
2013-05-08 22:28:00,54.3,42.9,29.96,North,0,0.0,0.0,65,0.00,,,0.00,WUHU216WMR100,2013-05-09 03:28:00,
2013-05-08 22:33:00,54.0,42.6,29.96,North,0,0.0,0.0,65,0.00,,,0.00,WUHU216WMR100,2013-05-09 03:33:00,
2013-05-08 22:38:00,53.8,43.2,29.96,North,0,0.0,0.0,67,0.00,,,0.00,WUHU216WMR100,2013-05-09 03:38:00,
2013-05-08 22:43:00,53.4,42.8,29.96,North,0,0.0,0.0,67,0.00,,,0.00,WUHU216WMR100,2013-05-09 03:43:00,
2013-05-08 22:48:00,53.2,42.6,29.96,North,0,0.0,0.0,67,0.00,,,0.00,WUHU216WMR100,2013-05-09 03:48:00,
2013-05-08 22:53:00,53.1,43.3,29.96,North,0,0.0,0.0,69,0.00,,,0.00,WUHU216WMR100,2013-05-09 03:53:00,
2013-05-08 22:58:00,53.1,43.3,29.96,North,0,0.0,0.0,69,0.00,,,0.00,WUHU216WMR100,2013-05-09 03:58:00,
2013-05-08 23:01:00,52.9,43.1,29.96,North,0,0.0,0.0,69,0.00,,,0.00,WUHU216WMR100,2013-05-09 04:01:00,
2013-05-08 23:06:00,52.7,43.3,29.96,North,0,0.0,0.0,70,0.00,,,0.00,WUHU216WMR100,2013-05-09 04:06:00,
2013-05-08 23:11:00,52.5,43.5,29.96,North,0,0.0,0.0,71,0.00,,,0.00,WUHU216WMR100,2013-05-09 04:11:00,
2013-05-08 23:16:00,52.7,44.0,29.96,North,0,0.0,0.0,72,0.00,,,0.00,WUHU216WMR100,2013-05-09 04:16:00,
2013-05-08 23:21:00,52.5,44.2,29.96,North,0,0.0,0.0,73,0.00,,,0.00,WUHU216WMR100,2013-05-09 04:21:00,
2013-05-08 23:26:00,52.3,44.0,29.96,North,0,0.0,0.0,73,0.00,,,0.00,WUHU216WMR100,2013-05-09 04:26:00,
2013-05-08 23:31:00,52.0,43.7,29.96,North,0,0.0,0.0,73,0.00,,,0.00,WUHU216WMR100,2013-05-09 04:31:00,
2013-05-08 23:36:00,51.8,43.9,29.96,North,0,0.0,0.0,74,0.00,,,0.00,WUHU216WMR100,2013-05-09 04:36:00,
2013-05-08 23:41:00,51.8,44.2,29.96,North,0,0.0,0.0,75,0.00,,,0.00,WUHU216WMR100,2013-05-09 04:41:00,
2013-05-08 23:46:00,51.6,44.4,29.96,North,0,0.0,0.0,76,0.00,,,0.00,WUHU216WMR100,2013-05-09 04:46:00,
2013-05-08 23:51:00,51.4,44.5,29.96,North,0,0.0,0.0,77,0.00,,,0.00,WUHU216WMR100,2013-05-09 04:51:00,
2013-05-08 23:56:00,51.4,44.5,29.96,North,0,0.0,0.0,77,0.00,,,0.00,WUHU216WMR100,2013-05-09 04:56:00,